Time;durP1;ratioP1;P1;durP2;ratioP2;P2;SDS_P1;SDS_P2;PMS_P1;PMS_P2;Temp;Humidity;BMP_temperature;BMP_pressure;BME280_temperature;BME280_humidity;BME280_pressure;Samples;Min_cycle;Max_cycle;Signal;HPM_P1;HPM_P2
2023/01/31 00:01:21;;;;;;;11.95;2.50;;;;;;;;;;7388614;19;20106;-73
2023/01/31 00:03:47;;;;;;;11.57;2.33;;;;;;;;;;7387332;19;19995;-73
2023/01/31 00:06:28;;;;;;;12.70;2.67;;;;;;;;;;7388938;19;19990;-73
2023/01/31 00:08:54;;;;;;;12.63;2.53;;;;;;;;;;7393220;19;19999;-73
2023/01/31 00:11:22;;;;;;;11.20;3.05;;;;;;;;;;7387952;19;20484;-73
2023/01/31 00:13:48;;;;;;;11.23;2.90;;;;;;;;;;7388669;19;20058;-75
2023/01/31 00:16:15;;;;;;;8.98;2.08;;;;;;;;;;7393573;19;20102;-75
2023/01/31 00:18:40;;;;;;;13.43;2.78;;;;;;;;;;7396255;19;20002;-73
2023/01/31 00:21:14;;;;;;;11.27;2.92;;;;;;;;;;7397811;19;20023;-75
2023/01/31 00:23:41;;;;;;;5.57;2.00;;;;;;;;;;7393421;19;20328;-74
2023/01/31 00:26:12;;;;;;;11.77;2.28;;;;;;;;;;7396520;19;20112;-74
2023/01/31 00:28:38;;;;;;;;;;;;;;;;;;7396827;19;20330;-74
2023/01/31 00:31:03;;;;;;;13.38;2.92;;;;;;;;;;7395025;19;19926;-74
2023/01/31 00:33:29;;;;;;;11.75;2.85;;;;;;;;;;7395144;19;20342;-74
2023/01/31 00:35:54;;;;;;;13.45;2.67;;;;;;;;;;7396146;19;20492;-74
2023/01/31 00:38:19;;;;;;;13.77;2.65;;;;;;;;;;7395780;19;20355;-75
2023/01/31 00:40:52;;;;;;;6.95;2.10;;;;;;;;;;7393771;19;20002;-75
2023/01/31 00:43:17;;;;;;;14.00;2.72;;;;;;;;;;7393225;19;19999;-74
2023/01/31 00:45:43;;;;;;;16.65;3.05;;;;;;;;;;7395724;19;20005;-75
2023/01/31 00:48:08;;;;;;;10.13;2.30;;;;;;;;;;7395920;19;19991;-74
2023/01/31 00:50:33;;;;;;;20.65;3.42;;;;;;;;;;7395219;19;20008;-74
2023/01/31 00:52:58;;;;;;;15.02;2.25;;;;;;;;;;7394859;19;19995;-74
2023/01/31 00:55:24;;;;;;;12.07;2.63;;;;;;;;;;7397643;19;19994;-74
2023/01/31 00:57:49;;;;;;;13.18;2.53;;;;;;;;;;7395926;19;20003;-74
2023/01/31 01:00:15;;;;;;;21.10;3.40;;;;;;;;;;7395326;19;19991;-74
2023/01/31 01:02:41;;;;;;;16.08;3.05;;;;;;;;;;7395612;19;20368;-75
2023/01/31 01:05:06;;;;;;;9.05;2.45;;;;;;;;;;7394820;19;20011;-74
2023/01/31 01:07:31;;;;;;;14.00;2.78;;;;;;;;;;7393083;19;20437;-73
2023/01/31 01:09:57;;;;;;;12.98;2.67;;;;;;;;;;7394648;19;19995;-74
2023/01/31 01:12:22;;;;;;;7.40;2.13;;;;;;;;;;7392190;19;20019;-73
2023/01/31 01:14:47;;;;;;;15.88;3.00;;;;;;;;;;7394348;19;19999;-73
2023/01/31 01:17:13;;;;;;;15.95;2.75;;;;;;;;;;7394718;19;20311;-73
2023/01/31 01:19:38;;;;;;;18.23;3.00;;;;;;;;;;7394337;19;20018;-73
2023/01/31 01:22:03;;;;;;;9.60;2.70;;;;;;;;;;7391916;19;20005;-73
2023/01/31 01:24:29;;;;;;;10.15;2.90;;;;;;;;;;7393606;19;20015;-73
2023/01/31 01:26:54;;;;;;;7.88;2.00;;;;;;;;;;7391338;19;20029;-74
2023/01/31 01:29:20;;;;;;;7.85;2.35;;;;;;;;;;7393908;19;20002;-73
2023/01/31 01:31:45;;;;;;;15.85;3.13;;;;;;;;;;7391040;19;20035;-74
2023/01/31 01:34:13;;;;;;;18.25;3.00;;;;;;;;;;7393357;19;20286;-74
2023/01/31 01:36:39;;;;;;;10.90;2.40;;;;;;;;;;7393570;19;20019;-73
2023/01/31 01:39:07;;;;;;;8.73;2.55;;;;;;;;;;7393327;19;20058;-73
2023/01/31 01:41:33;;;;;;;19.38;2.75;;;;;;;;;;7392072;19;19994;-73
2023/01/31 01:44:01;;;;;;;11.30;2.63;;;;;;;;;;7390542;19;19998;-75
2023/01/31 01:46:40;;;;;;;14.93;2.47;;;;;;;;;;7393203;19;20015;-73
2023/01/31 01:49:12;;;;;;;13.75;2.60;;;;;;;;;;7393243;19;20569;-73
2023/01/31 01:51:39;;;;;;;16.58;2.63;;;;;;;;;;7391950;19;20493;-74
2023/01/31 01:54:10;;;;;;;22.45;2.83;;;;;;;;;;7392660;19;20348;-74
2023/01/31 01:56:37;;;;;;;;;;;;;;;;;;7392835;19;20015;-74
2023/01/31 01:59:15;;;;;;;12.32;2.80;;;;;;;;;;7395216;19;19915;-74
2023/01/31 02:01:42;;;;;;;9.88;2.60;;;;;;;;;;7391482;19;20011;-73
2023/01/31 02:04:14;;;;;;;13.00;2.28;;;;;;;;;;7388592;19;20002;-76
2023/01/31 02:06:40;;;;;;;17.10;2.60;;;;;;;;;;7392593;19;20002;-74
2023/01/31 02:09:10;;;;;;;9.82;2.10;;;;;;;;;;7392788;19;20483;-73
2023/01/31 02:11:36;;;;;;;14.23;3.47;;;;;;;;;;7389886;19;19999;-73
2023/01/31 02:14:05;;;;;;;14.32;2.50;;;;;;;;;;7391498;19;20002;-73
2023/01/31 02:16:30;;;;;;;14.63;2.58;;;;;;;;;;7392450;19;20013;-73
2023/01/31 02:18:56;;;;;;;10.88;2.45;;;;;;;;;;7392766;19;20092;-73
2023/01/31 02:21:51;;;;;;;8.95;2.08;;;;;;;;;;7391155;19;20437;-73
2023/01/31 02:25:01;;;;;;;14.75;2.88;;;;;;;;;;7391561;19;20464;-73
2023/01/31 02:28:03;;;;;;;16.75;2.97;;;;;;;;;;7391283;19;20002;-73
2023/01/31 02:30:40;;;;;;;11.07;2.65;;;;;;;;;;7392506;19;20464;-75
2023/01/31 02:33:08;;;;;;;21.08;3.03;;;;;;;;;;7392328;19;20046;-72
2023/01/31 02:36:01;;;;;;;9.27;2.17;;;;;;;;;;7390325;19;20010;-73
2023/01/31 02:38:30;;;;;;;7.55;2.45;;;;;;;;;;7396075;19;20365;-73
2023/01/31 02:41:13;;;;;;;13.15;2.70;;;;;;;;;;7394583;19;20022;-73
2023/01/31 02:46:40;;;;;;;11.00;2.85;;;;;;;;;;7391240;19;19997;-73
2023/01/31 02:49:33;;;;;;;10.38;2.50;;;;;;;;;;7389786;19;19994;-73
2023/01/31 02:52:22;;;;;;;13.68;2.20;;;;;;;;;;7390089;19;20010;-73
2023/01/31 02:57:49;;;;;;;11.93;2.75;;;;;;;;;;7395702;19;20016;-72
2023/01/31 03:00:15;;;;;;;7.07;2.28;;;;;;;;;;7390946;19;20317;-73
2023/01/31 03:02:40;;;;;;;12.38;1.98;;;;;;;;;;7390080;19;20018;-73
2023/01/31 03:05:05;;;;;;;10.18;2.30;;;;;;;;;;7391205;19;19998;-73
2023/01/31 03:07:36;;;;;;;11.90;2.50;;;;;;;;;;7390459;19;19994;-73
2023/01/31 03:10:25;;;;;;;9.30;2.00;;;;;;;;;;7390530;19;20433;-73
2023/01/31 03:13:06;;;;;;;11.38;2.55;;;;;;;;;;7387862;19;20017;-72
2023/01/31 03:18:30;;;;;;;8.95;2.22;;;;;;;;;;7390263;19;20101;-73
2023/01/31 03:21:08;;;;;;;11.68;2.55;;;;;;;;;;7387917;19;20007;-72
2023/01/31 03:23:36;;;;;;;7.72;2.45;;;;;;;;;;7389018;19;20002;-73
2023/01/31 03:26:03;;;;;;;8.55;2.55;;;;;;;;;;7390426;19;20437;-73
2023/01/31 03:28:31;;;;;;;8.40;1.90;;;;;;;;;;7390340;19;20001;-73
2023/01/31 03:31:17;;;;;;;9.15;1.92;;;;;;;;;;7389813;19;20026;-73
2023/01/31 03:33:47;;;;;;;10.23;2.33;;;;;;;;;;7389662;19;20077;-73
2023/01/31 03:36:27;;;;;;;11.07;2.50;;;;;;;;;;7390386;19;20074;-73
2023/01/31 03:39:12;;;;;;;15.75;2.30;;;;;;;;;;7390321;19;20170;-73
2023/01/31 03:41:55;;;;;;;12.00;2.75;;;;;;;;;;7388518;19;20010;-74
2023/01/31 03:44:30;;;;;;;10.77;2.33;;;;;;;;;;7389987;19;20007;-73
2023/01/31 03:47:16;;;;;;;9.32;2.30;;;;;;;;;;7389823;19;20070;-74
2023/01/31 03:49:44;;;;;;;14.23;2.47;;;;;;;;;;7388494;19;20062;-73
2023/01/31 03:52:11;;;;;;;7.80;1.80;;;;;;;;;;7387734;19;19999;-74
2023/01/31 03:54:46;;;;;;;12.82;2.40;;;;;;;;;;7387540;19;20350;-73
2023/01/31 03:57:35;;;;;;;13.18;2.42;;;;;;;;;;7387432;19;20028;-73
2023/01/31 04:00:03;;;;;;;14.43;2.60;;;;;;;;;;7387958;19;20003;-73
2023/01/31 04:02:34;;;;;;;7.88;1.80;;;;;;;;;;7386857;19;20459;-73
2023/01/31 04:05:11;;;;;;;;;;;;;;;;;;7394455;19;20012;-73
2023/01/31 04:07:39;;;;;;;15.70;2.28;;;;;;;;;;7389048;19;19966;-73
2023/01/31 04:10:11;;;;;;;5.85;2.05;;;;;;;;;;7387356;19;20022;-73
2023/01/31 04:12:36;;;;;;;9.50;1.95;;;;;;;;;;7386475;19;19999;-73
2023/01/31 04:15:04;;;;;;;9.85;2.92;;;;;;;;;;7388816;19;20020;-73
2023/01/31 04:17:30;;;;;;;10.48;2.65;;;;;;;;;;7387769;19;20084;-73
2023/01/31 04:19:55;;;;;;;14.05;2.72;;;;;;;;;;7388719;19;20006;-73
2023/01/31 04:22:20;;;;;;;12.18;2.42;;;;;;;;;;7386807;19;20006;-73
2023/01/31 04:24:46;;;;;;;13.07;2.08;;;;;;;;;;7390090;19;20330;-73
2023/01/31 04:27:11;;;;;;;13.32;2.63;;;;;;;;;;7388740;19;20003;-73
2023/01/31 04:29:36;;;;;;;13.98;2.17;;;;;;;;;;7388443;19;20014;-73
2023/01/31 04:32:02;;;;;;;10.90;2.60;;;;;;;;;;7387042;19;20011;-73
2023/01/31 04:34:27;;;;;;;11.65;1.98;;;;;;;;;;7388192;19;19995;-73
2023/01/31 04:36:52;;;;;;;11.68;2.35;;;;;;;;;;7388141;19;20002;-73
2023/01/31 04:39:18;;;;;;;8.23;1.92;;;;;;;;;;7388050;19;19995;-73
2023/01/31 04:41:43;;;;;;;11.68;2.40;;;;;;;;;;7389408;19;20015;-73
2023/01/31 04:44:09;;;;;;;13.88;2.53;;;;;;;;;;7384420;19;20011;-73
2023/01/31 04:46:34;;;;;;;11.30;2.08;;;;;;;;;;7387244;19;20002;-74
2023/01/31 04:48:59;;;;;;;9.68;2.45;;;;;;;;;;7391467;19;19999;-73
2023/01/31 04:51:25;;;;;;;10.98;2.10;;;;;;;;;;7386797;19;19994;-73
2023/01/31 04:53:50;;;;;;;16.55;2.17;;;;;;;;;;7387172;19;20111;-73
2023/01/31 04:56:15;;;;;;;12.55;2.50;;;;;;;;;;7387766;19;20471;-74
2023/01/31 04:58:40;;;;;;;10.05;1.98;;;;;;;;;;7387551;19;20006;-74
2023/01/31 05:01:06;;;;;;;8.40;2.30;;;;;;;;;;7388074;19;20002;-74
2023/01/31 05:03:32;;;;;;;8.70;2.35;;;;;;;;;;7391541;19;20471;-73
2023/01/31 05:05:57;;;;;;;8.20;2.00;;;;;;;;;;7399006;19;20007;-74
2023/01/31 05:08:22;;;;;;;13.00;2.25;;;;;;;;;;7392720;19;20514;-74
2023/01/31 05:10:48;;;;;;;15.95;2.55;;;;;;;;;;7393598;19;19995;-73
2023/01/31 05:13:13;;;;;;;6.40;1.90;;;;;;;;;;7393911;19;19999;-73
2023/01/31 05:15:39;;;;;;;10.88;1.65;;;;;;;;;;7394935;19;19994;-73
2023/01/31 05:18:04;;;;;;;7.47;1.60;;;;;;;;;;7394685;19;20118;-73
2023/01/31 05:20:33;;;;;;;14.45;2.63;;;;;;;;;;7394115;19;20457;-73
2023/01/31 05:22:59;;;;;;;13.20;2.47;;;;;;;;;;7393261;19;20111;-73
2023/01/31 05:25:25;;;;;;;10.40;2.72;;;;;;;;;;7393301;19;20408;-73
2023/01/31 05:27:52;;;;;;;9.60;2.35;;;;;;;;;;7393310;19;19995;-73
2023/01/31 05:30:18;;;;;;;10.52;2.25;;;;;;;;;;7393517;19;20003;-73
2023/01/31 05:32:44;;;;;;;15.60;2.97;;;;;;;;;;7397657;19;20017;-73
2023/01/31 05:35:10;;;;;;;14.23;2.40;;;;;;;;;;7396303;19;20003;-73
2023/01/31 05:37:36;;;;;;;8.85;2.17;;;;;;;;;;7396083;19;20378;-73
2023/01/31 05:40:05;;;;;;;9.63;2.63;;;;;;;;;;7391693;19;19982;-76
2023/01/31 05:42:30;;;;;;;10.68;2.45;;;;;;;;;;7395158;19;20179;-74
2023/01/31 05:44:56;;;;;;;11.07;2.15;;;;;;;;;;7394019;19;19998;-75
2023/01/31 05:47:23;;;;;;;7.57;1.83;;;;;;;;;;7397408;19;19991;-74
2023/01/31 05:49:48;;;;;;;6.65;2.35;;;;;;;;;;7396849;19;20007;-74
2023/01/31 05:52:22;;;;;;;10.27;2.50;;;;;;;;;;7391809;19;19990;-74
2023/01/31 05:54:50;;;;;;;6.97;2.17;;;;;;;;;;7395036;19;19998;-73
2023/01/31 05:57:27;;;;;;;12.93;2.95;;;;;;;;;;7395449;19;19999;-74
2023/01/31 05:59:52;;;;;;;15.95;2.75;;;;;;;;;;7395612;19;19986;-73
2023/01/31 06:02:17;;;;;;;6.93;2.10;;;;;;;;;;7395282;19;20002;-73
2023/01/31 06:04:42;;;;;;;11.25;2.28;;;;;;;;;;7396492;19;19989;-75
2023/01/31 06:07:08;;;;;;;12.98;2.70;;;;;;;;;;7397649;19;19997;-73
2023/01/31 06:09:33;;;;;;;9.27;2.47;;;;;;;;;;7397414;19;20417;-73
2023/01/31 06:11:58;;;;;;;13.82;2.35;;;;;;;;;;7390103;19;20385;-73
2023/01/31 06:14:24;;;;;;;12.00;2.10;;;;;;;;;;7390163;19;20674;-73
2023/01/31 06:16:49;;;;;;;13.02;2.53;;;;;;;;;;7389178;19;19997;-73
2023/01/31 06:19:14;;;;;;;15.38;2.58;;;;;;;;;;7392912;19;20435;-73
2023/01/31 06:21:40;;;;;;;8.57;2.85;;;;;;;;;;7391780;19;19990;-73
2023/01/31 06:24:05;;;;;;;13.85;3.15;;;;;;;;;;7387774;19;20413;-75
2023/01/31 06:26:31;;;;;;;7.05;2.35;;;;;;;;;;7390798;19;20014;-74
2023/01/31 06:28:56;;;;;;;7.53;2.72;;;;;;;;;;7392650;19;20097;-73
2023/01/31 06:31:21;;;;;;;12.75;2.50;;;;;;;;;;7389784;19;19998;-73
2023/01/31 06:33:47;;;;;;;6.13;2.17;;;;;;;;;;7391835;19;19991;-73
2023/01/31 06:36:12;;;;;;;11.68;2.47;;;;;;;;;;7391040;19;20009;-75
2023/01/31 06:38:38;;;;;;;10.02;2.50;;;;;;;;;;7390850;19;20021;-76
2023/01/31 06:41:03;;;;;;;13.10;2.47;;;;;;;;;;7390714;19;20105;-80
2023/01/31 06:43:29;;;;;;;8.10;2.63;;;;;;;;;;7387499;19;20525;-77
2023/01/31 06:45:54;;;;;;;12.73;2.78;;;;;;;;;;7390382;19;20686;-76
2023/01/31 06:48:19;;;;;;;8.52;2.80;;;;;;;;;;7391902;19;19999;-77
2023/01/31 06:50:45;;;;;;;9.18;2.67;;;;;;;;;;7391243;19;20029;-76
2023/01/31 06:53:10;;;;;;;9.20;3.67;;;;;;;;;;7392031;19;19999;-76
2023/01/31 06:55:37;;;;;;;14.32;3.13;;;;;;;;;;7391571;19;19998;-78
2023/01/31 06:58:02;;;;;;;8.23;2.78;;;;;;;;;;7391914;19;20015;-78
2023/01/31 07:00:28;;;;;;;8.40;2.75;;;;;;;;;;7388902;19;19991;-78
2023/01/31 07:02:54;;;;;;;9.05;2.92;;;;;;;;;;7387188;19;20018;-78
2023/01/31 07:05:20;;;;;;;19.55;3.38;;;;;;;;;;7389060;19;20160;-78
2023/01/31 07:07:46;;;;;;;10.30;2.67;;;;;;;;;;7387854;19;20033;-78
2023/01/31 07:10:12;;;;;;;11.07;3.28;;;;;;;;;;7392587;19;20003;-78
2023/01/31 07:12:38;;;;;;;15.10;3.25;;;;;;;;;;7388885;19;20005;-78
2023/01/31 07:15:04;;;;;;;11.95;3.17;;;;;;;;;;7388361;19;19994;-78
2023/01/31 07:17:29;;;;;;;13.88;3.45;;;;;;;;;;7389562;19;20002;-78
2023/01/31 07:19:55;;;;;;;11.23;3.00;;;;;;;;;;7391938;19;20002;-77
2023/01/31 07:22:20;;;;;;;11.02;3.22;;;;;;;;;;7390617;19;19998;-78
2023/01/31 07:24:47;;;;;;;12.13;3.42;;;;;;;;;;7387505;19;20003;-77
2023/01/31 07:27:13;;;;;;;10.35;3.38;;;;;;;;;;7393105;19;20010;-79
2023/01/31 07:29:39;;;;;;;11.27;3.40;;;;;;;;;;7391438;19;20330;-79
2023/01/31 07:32:04;;;;;;;14.07;3.63;;;;;;;;;;7390345;19;20017;-79
2023/01/31 07:34:30;;;;;;;10.75;3.25;;;;;;;;;;7390460;19;20010;-77
2023/01/31 07:36:55;;;;;;;13.45;3.53;;;;;;;;;;7390891;19;20019;-77
2023/01/31 07:39:20;;;;;;;12.38;2.97;;;;;;;;;;7389752;19;20113;-77
2023/01/31 07:41:46;;;;;;;10.43;3.00;;;;;;;;;;7390023;19;20400;-78
2023/01/31 07:44:11;;;;;;;8.07;3.15;;;;;;;;;;7387942;19;20029;-77
2023/01/31 07:46:39;;;;;;;14.75;3.30;;;;;;;;;;7388811;19;20039;-78
2023/01/31 07:49:05;;;;;;;13.23;3.55;;;;;;;;;;7387810;19;19994;-78
2023/01/31 07:51:30;;;;;;;10.10;3.58;;;;;;;;;;7389877;19;20003;-78
2023/01/31 07:53:55;;;;;;;14.48;4.15;;;;;;;;;;7364188;19;20007;-78
2023/01/31 07:56:21;;;;;;;13.75;4.57;;;;;;;;;;7389320;19;20058;-78
2023/01/31 07:58:48;;;;;;;17.85;4.57;;;;;;;;;;7389052;19;20440;-78
2023/01/31 08:04:00;;;;;;;11.45;4.50;;;;;;;;;;7389588;19;20017;-78
2023/01/31 08:06:29;;;;;;;13.85;4.25;;;;;;;;;;7388207;19;20062;-78
2023/01/31 08:08:54;;;;;;;11.63;4.65;;;;;;;;;;7388292;19;20012;-78
2023/01/31 08:11:20;;;;;;;14.30;4.43;;;;;;;;;;7388357;19;19998;-77
2023/01/31 08:13:45;;;;;;;14.38;4.30;;;;;;;;;;7390491;19;20022;-79
2023/01/31 08:16:11;;;;;;;17.58;4.70;;;;;;;;;;7388399;19;20452;-77
2023/01/31 08:18:37;;;;;;;13.20;4.93;;;;;;;;;;7387327;19;20058;-74
2023/01/31 08:21:03;;;;;;;14.18;5.35;;;;;;;;;;7383605;19;20505;-74
2023/01/31 08:23:29;;;;;;;19.17;5.60;;;;;;;;;;7386744;19;20054;-75
2023/01/31 08:26:08;;;;;;;18.65;6.60;;;;;;;;;;7386805;19;19998;-77
2023/01/31 08:28:33;;;;;;;20.58;6.88;;;;;;;;;;7388725;19;20007;-75
2023/01/31 08:30:59;;;;;;;14.43;6.13;;;;;;;;;;7387213;19;20029;-80
2023/01/31 08:33:24;;;;;;;11.50;5.82;;;;;;;;;;7387694;19;20026;-79
2023/01/31 08:35:50;;;;;;;16.83;6.05;;;;;;;;;;7390679;19;20010;-81
2023/01/31 08:38:15;;;;;;;17.38;6.65;;;;;;;;;;7391776;19;20740;-82
2023/01/31 08:40:40;;;;;;;19.50;7.40;;;;;;;;;;7396663;19;20002;-81
2023/01/31 08:43:07;;;;;;;16.35;6.30;;;;;;;;;;7395693;19;20074;-85
2023/01/31 08:45:33;;;;;;;20.38;6.50;;;;;;;;;;7396982;19;19998;-80
2023/01/31 08:47:59;;;;;;;17.27;7.30;;;;;;;;;;7396302;19;20005;-79
2023/01/31 08:50:28;;;;;;;19.73;6.30;;;;;;;;;;7394916;19;20334;-77
2023/01/31 08:52:58;;;;;;;17.77;6.93;;;;;;;;;;7393803;19;20461;-78
2023/01/31 08:55:25;;;;;;;14.23;5.27;;;;;;;;;;7395729;19;20047;-77
2023/01/31 08:57:51;;;;;;;16.27;5.72;;;;;;;;;;7398938;19;20018;-79
2023/01/31 09:00:17;;;;;;;16.58;6.30;;;;;;;;;;7398510;19;20003;-74
2023/01/31 09:02:45;;;;;;;15.35;6.20;;;;;;;;;;7392043;19;19999;-75
2023/01/31 09:05:10;;;;;;;11.57;5.60;;;;;;;;;;7394642;19;20006;-77
2023/01/31 09:07:36;;;;;;;16.33;6.97;;;;;;;;;;7395828;19;20051;-74
2023/01/31 09:10:01;;;;;;;15.00;6.05;;;;;;;;;;7395912;19;20007;-75
2023/01/31 09:12:26;;;;;;;16.23;5.55;;;;;;;;;;7390874;19;19999;-78
2023/01/31 09:14:52;;;;;;;15.45;5.43;;;;;;;;;;7392591;19;20003;-84
2023/01/31 09:17:18;;;;;;;13.15;5.40;;;;;;;;;;7393118;19;20042;-80
2023/01/31 09:19:43;;;;;;;15.20;5.10;;;;;;;;;;7395120;19;19998;-87
2023/01/31 09:22:09;;;;;;;12.40;5.13;;;;;;;;;;7393778;19;20006;-76
2023/01/31 09:24:35;;;;;;;14.63;5.75;;;;;;;;;;7394541;19;20006;-79
2023/01/31 09:27:00;;;;;;;12.10;5.25;;;;;;;;;;7393639;19;20066;-78
2023/01/31 09:29:27;;;;;;;12.85;5.10;;;;;;;;;;7393958;19;19998;-80
2023/01/31 09:31:53;;;;;;;13.05;5.22;;;;;;;;;;7391186;19;20010;-75
2023/01/31 09:34:18;;;;;;;17.65;5.90;;;;;;;;;;7391273;19;20007;-80
2023/01/31 09:36:44;;;;;;;12.27;5.05;;;;;;;;;;7393963;19;20038;-77
2023/01/31 09:39:11;;;;;;;15.27;5.03;;;;;;;;;;7395460;19;20669;-76
2023/01/31 09:42:00;;;;;;;15.13;5.68;;;;;;;;;;7392484;19;20010;-74
2023/01/31 09:44:31;;;;;;;14.93;4.97;;;;;;;;;;7391397;19;20019;-74
2023/01/31 09:47:07;;;;;;;11.77;4.97;;;;;;;;;;7390919;19;20011;-77
2023/01/31 09:49:58;;;;;;;13.52;4.88;;;;;;;;;;7394997;19;20003;-74
2023/01/31 09:52:26;;;;;;;14.43;5.35;;;;;;;;;;7391750;19;19994;-83
2023/01/31 09:54:51;;;;;;;16.13;5.70;;;;;;;;;;7390933;19;20009;-81
2023/01/31 09:57:26;;;;;;;18.20;5.47;;;;;;;;;;7386524;19;20073;-80
2023/01/31 10:00:01;;;;;;;11.80;4.07;;;;;;;;;;7393269;19;19998;-79
2023/01/31 10:02:26;;;;;;;14.30;5.85;;;;;;;;;;7389967;19;20532;-78
2023/01/31 10:05:06;;;;;;;18.85;6.10;;;;;;;;;;7391108;19;19994;-78
2023/01/31 10:07:37;;;;;;;21.80;5.97;;;;;;;;;;7394052;19;20010;-78
2023/01/31 10:10:09;;;;;;;18.25;6.78;;;;;;;;;;7393755;19;20083;-83
2023/01/31 10:12:49;;;;;;;12.30;5.63;;;;;;;;;;7393203;19;19998;-81
2023/01/31 10:15:39;;;;;;;28.27;5.80;;;;;;;;;;7394310;19;20034;-84
2023/01/31 10:18:10;;;;;;;13.30;5.63;;;;;;;;;;7395638;19;19994;-80
2023/01/31 10:21:01;;;;;;;14.10;5.82;;;;;;;;;;7392658;19;19999;-77
2023/01/31 10:23:37;;;;;;;12.35;5.50;;;;;;;;;;7390838;19;19998;-75
2023/01/31 10:26:08;;;;;;;17.08;5.32;;;;;;;;;;7392515;19;20002;-74
2023/01/31 10:28:57;;;;;;;15.15;6.10;;;;;;;;;;7393403;19;19997;-77
2023/01/31 10:31:32;;;;;;;18.90;5.47;;;;;;;;;;7390121;19;20555;-78
2023/01/31 10:34:03;;;;;;;11.88;5.15;;;;;;;;;;7392044;19;20697;-82
2023/01/31 10:36:35;;;;;;;13.23;5.22;;;;;;;;;;7393736;19;20472;-78
2023/01/31 10:39:28;;;;;;;16.13;5.93;;;;;;;;;;7392727;19;20076;-77
2023/01/31 10:42:05;;;;;;;16.75;6.13;;;;;;;;;;7389907;19;19998;-77
2023/01/31 10:44:39;;;;;;;10.82;4.85;;;;;;;;;;7390355;19;20366;-87
2023/01/31 10:47:11;;;;;;;15.35;5.20;;;;;;;;;;7388585;19;20402;-77
2023/01/31 10:49:37;;;;;;;17.52;5.43;;;;;;;;;;7392965;19;20001;-77
2023/01/31 10:52:22;;;;;;;15.38;5.40;;;;;;;;;;7390901;19;19990;-78
2023/01/31 10:55:11;;;;;;;12.15;4.85;;;;;;;;;;7390155;19;20467;-79
2023/01/31 10:57:37;;;;;;;13.23;4.57;;;;;;;;;;7390415;19;19994;-78
2023/01/31 11:00:03;;;;;;;14.43;4.90;;;;;;;;;;7389452;19;20014;-79
2023/01/31 11:02:29;;;;;;;13.48;5.03;;;;;;;;;;7389815;19;20429;-78
2023/01/31 11:04:57;;;;;;;14.80;5.13;;;;;;;;;;7391705;19;19990;-78
2023/01/31 11:07:23;;;;;;;12.40;4.80;;;;;;;;;;7388318;19;20022;-78
2023/01/31 11:09:53;;;;;;;12.50;4.90;;;;;;;;;;7387355;19;20006;-77
2023/01/31 11:12:19;;;;;;;13.77;4.80;;;;;;;;;;7385317;19;20023;-78
2023/01/31 11:14:44;;;;;;;11.50;4.40;;;;;;;;;;7385526;19;20365;-78
2023/01/31 11:17:20;;;;;;;11.80;4.70;;;;;;;;;;7386550;19;20031;-78
2023/01/31 11:19:51;;;;;;;8.88;3.97;;;;;;;;;;7386710;19;20021;-78
2023/01/31 11:22:36;;;;;;;10.32;4.15;;;;;;;;;;7382269;19;20449;-77
2023/01/31 11:25:03;;;;;;;9.45;3.78;;;;;;;;;;7387660;19;20007;-78
2023/01/31 11:27:35;;;;;;;15.75;4.63;;;;;;;;;;7388962;19;20006;-78
2023/01/31 11:30:03;;;;;;;9.57;4.80;;;;;;;;;;7390490;19;20418;-78
2023/01/31 11:32:31;;;;;;;10.02;4.57;;;;;;;;;;7386335;19;19998;-78
2023/01/31 11:35:05;;;;;;;11.05;3.53;;;;;;;;;;7388513;19;20046;-78
2023/01/31 11:37:32;;;;;;;17.45;5.43;;;;;;;;;;7390269;19;20473;-77
2023/01/31 11:40:00;;;;;;;12.40;4.78;;;;;;;;;;7389597;19;20477;-77
2023/01/31 11:42:25;;;;;;;13.20;4.80;;;;;;;;;;7384597;19;20348;-76
2023/01/31 11:44:59;;;;;;;11.90;4.50;;;;;;;;;;7386907;19;19998;-76
2023/01/31 11:47:39;;;;;;;13.60;4.80;;;;;;;;;;7389504;19;20007;-77
2023/01/31 11:50:05;;;;;;;11.93;4.55;;;;;;;;;;7388265;19;20003;-79
2023/01/31 11:52:33;;;;;;;11.90;4.53;;;;;;;;;;7383368;19;20013;-80
2023/01/31 11:55:03;;;;;;;17.45;5.72;;;;;;;;;;7389090;19;20070;-71
2023/01/31 11:57:32;;;;;;;17.70;6.03;;;;;;;;;;7387474;19;20002;-70
2023/01/31 12:00:00;;;;;;;13.63;4.53;;;;;;;;;;7390602;19;20002;-70
2023/01/31 12:02:34;;;;;;;9.85;4.55;;;;;;;;;;7391676;19;19998;-79
2023/01/31 12:05:06;;;;;;;10.90;4.95;;;;;;;;;;7389676;19;20005;-78
2023/01/31 12:07:43;;;;;;;14.35;5.07;;;;;;;;;;7391233;19;20015;-78
2023/01/31 12:10:45;;;;;;;23.55;8.07;;;;;;;;;;7381511;19;20749;-71
2023/01/31 12:13:16;;;;;;;16.80;4.70;;;;;;;;;;7392256;19;19998;-79
2023/01/31 12:15:55;;;;;;;11.10;4.93;;;;;;;;;;7398061;19;19994;-79
2023/01/31 12:18:37;;;;;;;13.98;4.88;;;;;;;;;;7395993;19;20002;-77
2023/01/31 12:21:19;;;;;;;14.82;5.60;;;;;;;;;;7395094;19;20095;-76
2023/01/31 12:23:59;;;;;;;;;;;;;;;;;;7395460;19;20003;-77
2023/01/31 12:26:46;;;;;;;13.83;5.63;;;;;;;;;;7396954;19;19918;-74
2023/01/31 12:29:18;;;;;;;10.70;5.07;;;;;;;;;;7398041;19;20073;-76
2023/01/31 12:32:28;;;;;;;15.55;5.00;;;;;;;;;;7394983;19;20008;-75
2023/01/31 12:35:23;;;;;;;18.13;5.43;;;;;;;;;;7391768;19;20024;-79
2023/01/31 12:37:49;;;;;;;12.55;5.30;;;;;;;;;;7398461;19;20337;-78
2023/01/31 12:40:24;;;;;;;17.05;6.07;;;;;;;;;;7396806;19;19998;-74
2023/01/31 12:42:59;;;;;;;20.20;5.18;;;;;;;;;;7391823;19;20062;-71
2023/01/31 12:45:36;;;;;;;15.05;5.43;;;;;;;;;;7396944;19;20445;-84
2023/01/31 12:48:38;;;;;;;20.13;6.43;;;;;;;;;;7396634;19;20066;-75
2023/01/31 12:51:28;;;;;;;16.77;6.60;;;;;;;;;;7393662;19;20016;-74
2023/01/31 12:54:02;;;;;;;13.35;5.00;;;;;;;;;;7396183;19;20370;-74
2023/01/31 12:57:01;;;;;;;15.35;5.05;;;;;;;;;;7397348;19;20006;-74
2023/01/31 12:59:45;;;;;;;13.82;5.40;;;;;;;;;;7391369;19;20007;-76
2023/01/31 13:02:20;;;;;;;14.50;5.80;;;;;;;;;;7393759;19;20598;-73
2023/01/31 13:04:54;;;;;;;20.15;5.07;;;;;;;;;;7394392;19;20003;-73
2023/01/31 13:07:38;;;;;;;12.95;5.38;;;;;;;;;;7393196;19;20311;-73
2023/01/31 13:10:15;;;;;;;14.70;5.18;;;;;;;;;;7395749;19;19998;-73
2023/01/31 13:12:41;;;;;;;14.48;5.30;;;;;;;;;;7397185;19;20012;-75
2023/01/31 13:15:14;;;;;;;13.38;5.35;;;;;;;;;;7394949;19;19991;-73
2023/01/31 13:17:42;;;;;;;15.88;5.13;;;;;;;;;;7396323;19;19999;-76
2023/01/31 13:20:25;;;;;;;16.67;5.45;;;;;;;;;;7396732;19;20006;-75
2023/01/31 13:23:12;;;;;;;10.10;5.20;;;;;;;;;;7390509;19;20562;-76
2023/01/31 13:25:40;;;;;;;17.27;5.78;;;;;;;;;;7396392;19;20002;-75
2023/01/31 13:28:15;;;;;;;13.95;5.05;;;;;;;;;;7396415;19;20019;-75
2023/01/31 13:30:55;;;;;;;14.93;5.05;;;;;;;;;;7396208;19;20007;-76
2023/01/31 13:33:34;;;;;;;11.35;4.30;;;;;;;;;;7398606;19;20452;-79
2023/01/31 13:36:14;;;;;;;15.82;4.72;;;;;;;;;;7411053;19;20018;-76
2023/01/31 13:38:41;;;;;;;15.73;5.80;;;;;;;;;;7416928;19;20046;-76
2023/01/31 13:41:15;;;;;;;16.15;5.35;;;;;;;;;;7408420;19;20007;-75
2023/01/31 13:43:41;;;;;;;11.82;4.13;;;;;;;;;;7418179;19;20033;-76
2023/01/31 13:46:08;;;;;;;10.02;5.03;;;;;;;;;;7425907;19;20313;-76
2023/01/31 13:48:41;;;;;;;14.68;4.95;;;;;;;;;;7430713;19;20025;-76
2023/01/31 13:51:31;;;;;;;10.93;4.63;;;;;;;;;;7420839;19;19998;-75
2023/01/31 13:54:09;;;;;;;9.27;4.57;;;;;;;;;;7424583;19;20002;-75
2023/01/31 13:56:38;;;;;;;10.95;4.45;;;;;;;;;;7410509;19;20173;-73
2023/01/31 13:59:09;;;;;;;8.70;3.97;;;;;;;;;;7399235;19;20079;-75
2023/01/31 14:01:41;;;;;;;;;;;;;;;;;;7406256;19;19999;-72
2023/01/31 14:04:13;;;;;;;10.40;4.70;;;;;;;;;;7402806;19;19947;-72
2023/01/31 14:07:07;;;;;;;13.55;4.15;;;;;;;;;;7402514;19;20002;-72
2023/01/31 14:09:33;;;;;;;14.60;4.95;;;;;;;;;;7409601;19;20015;-72
2023/01/31 14:12:01;;;;;;;11.95;4.03;;;;;;;;;;7397281;19;20006;-71
2023/01/31 14:14:36;;;;;;;12.40;4.05;;;;;;;;;;7394736;19;20010;-76
2023/01/31 14:17:08;;;;;;;12.65;4.72;;;;;;;;;;7397907;19;19994;-76
2023/01/31 14:19:54;;;;;;;19.60;5.07;;;;;;;;;;7396724;19;19998;-75
2023/01/31 14:22:20;;;;;;;15.45;5.00;;;;;;;;;;7392615;19;19991;-76
2023/01/31 14:24:46;;;;;;;12.63;5.10;;;;;;;;;;7396774;19;20015;-77
2023/01/31 14:27:17;;;;;;;11.93;4.45;;;;;;;;;;7395436;19;19983;-78
2023/01/31 14:29:42;;;;;;;;;;;;;;;;;;7396701;19;20011;-76
2023/01/31 14:33:10;;;;;;;13.40;4.45;;;;;;;;;;7395650;19;19914;-77
2023/01/31 14:35:53;;;;;;;11.73;4.22;;;;;;;;;;7394955;19;19991;-78
2023/01/31 14:38:40;;;;;;;13.35;5.28;;;;;;;;;;7397494;19;19999;-77
2023/01/31 14:41:17;;;;;;;15.63;5.32;;;;;;;;;;7393992;19;19994;-76
2023/01/31 14:44:21;;;;;;;11.77;4.93;;;;;;;;;;7391654;19;19998;-76
2023/01/31 14:46:54;;;;;;;13.25;5.55;;;;;;;;;;7390210;19;20006;-78
2023/01/31 14:49:48;;;;;;;11.63;5.20;;;;;;;;;;7394608;19;20006;-77
2023/01/31 14:52:21;;;;;;;19.05;5.85;;;;;;;;;;7391916;19;20002;-75
2023/01/31 14:55:24;;;;;;;13.23;5.22;;;;;;;;;;7393809;19;19995;-76
2023/01/31 14:57:55;;;;;;;18.80;5.53;;;;;;;;;;7392442;19;20001;-75
2023/01/31 15:00:27;;;;;;;14.57;5.55;;;;;;;;;;7392487;19;20011;-75
2023/01/31 15:03:37;;;;;;;16.25;5.93;;;;;;;;;;7389855;19;19995;-75
2023/01/31 15:06:16;;;;;;;12.50;4.68;;;;;;;;;;7392301;19;20042;-78
2023/01/31 15:08:48;;;;;;;17.50;5.82;;;;;;;;;;7393319;19;20014;-79